Time;durP1;ratioP1;P1;durP2;ratioP2;P2;SDS_P1;SDS_P2;PMS_P1;PMS_P2;Temp;Humidity;BMP_temperature;BMP_pressure;BME280_temperature;BME280_humidity;BME280_pressure;Samples;Min_cycle;Max_cycle;Signal;HPM_P1;HPM_P2
2022/06/07 00:00:03;;;;;;;37.30;22.83;;;13.10;99.90;;;;;;5066885;28;20024;-76
2022/06/07 00:02:30;;;;;;;35.72;22.38;;;13.10;99.90;;;;;;5070760;28;20048;-75
2022/06/07 00:04:56;;;;;;;35.83;23.20;;;13.10;99.90;;;;;;5071020;28;20399;-75
2022/06/07 00:07:24;;;;;;;33.13;23.27;;;13.10;99.90;;;;;;5073502;28;20037;-76
2022/06/07 00:09:50;;;;;;;42.28;23.83;;;13.10;99.90;;;;;;5072960;28;20115;-75
2022/06/07 00:12:17;;;;;;;40.13;24.40;;;13.10;99.90;;;;;;5065312;28;20100;-75
2022/06/07 00:14:43;;;;;;;42.60;24.67;;;13.10;99.90;;;;;;5071314;28;20089;-75
2022/06/07 00:17:09;;;;;;;31.98;23.17;;;13.20;99.90;;;;;;5054143;28;20082;-76
2022/06/07 00:19:34;;;;;;;39.42;24.98;;;13.20;99.90;;;;;;5071374;28;20218;-75
2022/06/07 00:22:01;;;;;;;42.40;25.02;;;13.20;99.90;;;;;;5084333;28;20524;-75
2022/06/07 00:24:26;;;;;;;44.47;25.90;;;13.20;99.90;;;;;;5070612;28;20060;-75
2022/06/07 00:26:52;;;;;;;44.95;26.48;;;13.20;99.90;;;;;;5068617;28;20480;-75
2022/06/07 00:29:19;;;;;;;41.97;24.70;;;13.20;99.90;;;;;;5071703;28;20080;-76
2022/06/07 00:31:45;;;;;;;40.03;26.00;;;13.30;99.90;;;;;;5071474;28;20436;-75
2022/06/07 00:34:11;;;;;;;46.53;25.63;;;13.30;99.90;;;;;;5069440;28;20064;-76
2022/06/07 00:36:37;;;;;;;40.72;27.00;;;13.30;99.90;;;;;;5071915;28;20050;-76
2022/06/07 00:39:04;;;;;;;46.50;26.38;;;13.30;99.90;;;;;;5072161;28;20020;-76
2022/06/07 00:41:30;;;;;;;41.15;26.38;;;13.30;99.90;;;;;;5073662;28;20041;-75
2022/06/07 00:44:43;;;;;;;45.08;26.95;;;13.30;99.90;;;;;;5069251;28;20044;-75
2022/06/07 00:47:11;;;;;;;49.33;28.83;;;13.30;99.90;;;;;;5067391;28;20029;-75
2022/06/07 00:49:58;;;;;;;47.45;27.88;;;13.30;99.90;;;;;;5072687;28;20045;-76
2022/06/07 00:52:27;;;;;;;46.35;28.95;;;13.30;99.90;;;;;;5065871;28;20032;-75
2022/06/07 00:54:54;;;;;;;49.67;28.85;;;13.30;99.90;;;;;;5069868;28;20057;-76
2022/06/07 00:57:20;;;;;;;54.83;31.67;;;13.40;99.90;;;;;;5070883;28;20647;-76
2022/06/07 00:59:46;;;;;;;50.15;31.20;;;13.30;99.90;;;;;;5071961;28;20104;-76
2022/06/07 01:02:12;;;;;;;53.20;29.73;;;13.30;99.90;;;;;;5068951;28;20107;-75
2022/06/07 01:04:38;;;;;;;48.92;30.48;;;13.40;99.90;;;;;;5069096;28;20036;-76
2022/06/07 01:12:33;;;;;;;57.35;31.80;;;13.40;99.90;;;;;;5070184;28;20027;-76
2022/06/07 01:14:59;;;;;;;54.97;31.75;;;13.40;99.90;;;;;;5068616;28;20037;-76
2022/06/07 01:17:25;;;;;;;53.10;32.25;;;13.40;99.90;;;;;;5068081;28;20431;-75
2022/06/07 01:19:51;;;;;;;50.20;31.77;;;13.50;99.90;;;;;;5070584;28;20387;-76
2022/06/07 01:22:17;;;;;;;56.22;33.42;;;13.50;99.90;;;;;;5070625;28;20029;-75
2022/06/07 01:24:43;;;;;;;47.85;31.23;;;13.50;99.90;;;;;;5068752;28;20043;-75
2022/06/07 01:27:10;;;;;;;52.13;32.10;;;13.50;99.90;;;;;;5052009;28;20390;-76
2022/06/07 01:29:36;;;;;;;51.53;32.25;;;13.50;99.90;;;;;;5069842;28;20090;-76
2022/06/07 01:32:03;;;;;;;50.67;31.20;;;13.50;99.90;;;;;;5068065;28;20029;-75
2022/06/07 01:34:29;;;;;;;51.13;32.55;;;13.50;99.90;;;;;;5068794;28;20090;-75
2022/06/07 01:36:56;;;;;;;53.05;32.17;;;13.50;99.90;;;;;;5069690;28;20029;-76
2022/06/07 01:42:07;;;;;;;48.25;29.58;;;13.50;99.90;;;;;;5061459;28;20036;-75
2022/06/07 01:44:41;;;;;;;51.75;32.22;;;13.50;99.90;;;;;;5069150;28;20020;-75
2022/06/07 01:47:10;;;;;;;56.80;32.35;;;13.50;99.90;;;;;;5070524;28;20047;-75
2022/06/07 01:49:37;;;;;;;50.08;30.85;;;13.50;99.90;;;;;;5069456;28;20043;-75
2022/06/07 01:52:04;;;;;;;49.60;31.13;;;13.50;99.90;;;;;;5071534;28;20024;-76
2022/06/07 01:54:30;;;;;;;47.35;33.22;;;13.40;99.90;;;;;;5067252;28;20047;-75
2022/06/07 01:56:56;;;;;;;48.05;31.42;;;13.40;99.90;;;;;;5070085;28;20488;-76
2022/06/07 01:59:21;;;;;;;52.40;31.65;;;13.40;99.90;;;;;;5068025;28;20029;-76
2022/06/07 02:01:48;;;;;;;45.65;29.67;;;13.40;99.90;;;;;;5041742;28;20163;-76
2022/06/07 02:04:14;;;;;;;46.50;29.65;;;13.40;99.90;;;;;;5049587;28;20056;-76
2022/06/07 02:06:40;;;;;;;48.53;30.75;;;13.40;99.90;;;;;;5070740;28;20024;-75
2022/06/07 02:09:07;;;;;;;51.28;30.80;;;13.40;99.90;;;;;;5068978;28;20036;-76
2022/06/07 02:11:34;;;;;;;46.83;29.80;;;13.40;99.90;;;;;;5071160;28;20028;-75
2022/06/07 02:14:00;;;;;;;52.58;31.60;;;13.50;99.90;;;;;;5067052;28;20032;-76
2022/06/07 02:16:26;;;;;;;49.25;30.60;;;13.40;99.90;;;;;;5069937;28;20543;-76
2022/06/07 02:18:52;;;;;;;42.22;27.08;;;13.40;99.90;;;;;;5063698;28;20162;-76
2022/06/07 02:21:19;;;;;;;45.17;29.23;;;13.40;99.90;;;;;;5071086;28;20027;-76
2022/06/07 02:23:45;;;;;;;43.67;27.73;;;13.40;99.90;;;;;;5069314;28;20020;-76
2022/06/07 02:26:21;;;;;;;42.47;28.45;;;13.40;99.90;;;;;;5067390;28;20036;-76
2022/06/07 02:28:52;;;;;;;49.65;29.30;;;13.40;99.90;;;;;;5065824;28;20039;-76
2022/06/07 02:31:18;;;;;;;37.70;26.83;;;13.40;99.90;;;;;;5051649;28;20369;-76
2022/06/07 02:33:45;;;;;;;36.80;26.33;;;13.40;99.90;;;;;;5066629;28;20381;-76
2022/06/07 02:36:11;;;;;;;44.03;27.52;;;13.40;99.90;;;;;;5067680;28;20116;-76
2022/06/07 02:38:38;;;;;;;43.30;27.65;;;13.40;99.90;;;;;;5067926;28;20407;-75
2022/06/07 02:41:07;;;;;;;39.50;27.20;;;13.40;99.90;;;;;;5066395;28;20380;-76
2022/06/07 02:43:33;;;;;;;35.95;26.58;;;13.50;99.90;;;;;;5064527;28;20024;-76
2022/06/07 02:45:58;;;;;;;36.78;25.85;;;13.50;99.90;;;;;;5068319;28;20419;-76
2022/06/07 02:48:24;;;;;;;48.38;29.58;;;13.40;99.90;;;;;;5068743;28;20126;-76
2022/06/07 02:50:52;;;;;;;40.92;27.35;;;13.40;99.90;;;;;;5067534;28;20032;-75
2022/06/07 02:53:18;;;;;;;40.47;27.98;;;13.40;99.90;;;;;;5069305;28;20119;-76
2022/06/07 02:55:44;;;;;;;43.85;28.63;;;13.40;99.90;;;;;;5052631;28;20052;-76
2022/06/07 02:58:09;;;;;;;42.50;27.70;;;13.40;99.90;;;;;;5069162;28;20059;-75
2022/06/07 03:00:35;;;;;;;41.70;28.27;;;13.40;99.90;;;;;;5068374;28;20031;-75
2022/06/07 03:03:00;;;;;;;44.10;28.02;;;13.40;99.90;;;;;;5068481;28;20398;-75
2022/06/07 03:05:26;;;;;;;43.03;28.38;;;13.40;99.90;;;;;;5068961;28;20028;-76
2022/06/07 03:07:52;;;;;;;40.90;28.65;;;13.30;99.90;;;;;;5068082;28;20036;-75
2022/06/07 03:10:18;;;;;;;44.30;29.85;;;13.30;99.90;;;;;;5075125;28;20105;-75
2022/06/07 03:12:44;;;;;;;48.28;28.48;;;13.30;99.90;;;;;;5068687;28;20032;-76
2022/06/07 03:15:11;;;;;;;46.30;29.55;;;13.30;99.90;;;;;;5067485;28;20028;-76
2022/06/07 03:17:37;;;;;;;49.45;29.63;;;13.20;99.90;;;;;;5064847;28;20044;-75
2022/06/07 03:20:05;;;;;;;44.97;29.05;;;13.30;99.90;;;;;;5069044;28;20078;-75
2022/06/07 03:22:31;;;;;;;45.03;28.67;;;13.30;99.90;;;;;;5067742;28;20028;-75
2022/06/07 03:24:56;;;;;;;43.40;28.45;;;13.30;99.90;;;;;;5067380;28;20024;-75
2022/06/07 03:27:22;;;;;;;46.70;28.27;;;13.30;99.90;;;;;;5070258;28;20029;-75
2022/06/07 03:29:47;;;;;;;45.35;28.48;;;13.30;99.90;;;;;;5073230;28;20395;-75
2022/06/07 03:32:13;;;;;;;42.10;27.75;;;13.30;99.90;;;;;;5072278;28;20430;-75
2022/06/07 03:34:39;;;;;;;44.33;28.98;;;13.30;99.90;;;;;;5071440;28;20036;-75
2022/06/07 03:37:05;;;;;;;39.97;27.88;;;13.40;99.90;;;;;;5071610;28;20073;-75
2022/06/07 03:39:30;;;;;;;44.05;26.70;;;13.40;99.90;;;;;;5071694;28;20082;-77
2022/06/07 03:41:56;;;;;;;39.80;26.27;;;13.40;99.90;;;;;;5071595;28;20064;-75
2022/06/07 03:44:21;;;;;;;38.28;26.40;;;13.40;99.90;;;;;;5071508;28;20021;-75
2022/06/07 03:46:48;;;;;;;42.60;27.88;;;13.40;99.90;;;;;;5071763;28;20040;-75
2022/06/07 03:49:13;;;;;;;38.05;26.15;;;13.30;99.90;;;;;;5067753;28;20063;-76
2022/06/07 03:51:39;;;;;;;39.13;26.27;;;13.40;99.90;;;;;;5072373;28;20480;-76
2022/06/07 03:54:06;;;;;;;39.10;24.85;;;13.30;99.90;;;;;;5070215;28;20110;-75
2022/06/07 03:56:32;;;;;;;36.53;24.60;;;13.40;99.90;;;;;;5072610;28;20024;-76
2022/06/07 03:58:58;;;;;;;40.33;25.35;;;13.40;99.90;;;;;;5071690;28;20484;-75
2022/06/07 04:01:25;;;;;;;39.10;25.45;;;13.40;99.90;;;;;;5071551;28;20028;-75
2022/06/07 04:03:55;;;;;;;35.42;24.85;;;13.30;99.90;;;;;;5065236;28;20091;-75
2022/06/07 04:06:24;;;;;;;35.88;24.67;;;13.30;99.90;;;;;;5071208;28;20431;-75
2022/06/07 04:08:50;;;;;;;33.40;24.55;;;13.30;99.90;;;;;;5053536;28;20040;-76
2022/06/07 04:11:18;;;;;;;40.20;26.15;;;13.20;99.90;;;;;;5070651;28;20103;-75
2022/06/07 04:13:44;;;;;;;34.47;25.45;;;13.20;99.90;;;;;;5072127;28;20525;-77
2022/06/07 04:16:12;;;;;;;39.85;25.63;;;13.20;99.90;;;;;;5068730;28;20032;-76
2022/06/07 04:18:39;;;;;;;35.63;25.17;;;13.20;99.90;;;;;;5058971;28;20081;-75
2022/06/07 04:21:05;;;;;;;36.58;26.02;;;13.20;99.90;;;;;;5070769;28;20372;-76
2022/06/07 04:23:32;;;;;;;42.25;25.75;;;13.10;99.90;;;;;;5070503;28;20043;-76
2022/06/07 04:26:08;;;;;;;38.08;26.65;;;13.10;99.90;;;;;;5071114;28;20032;-75
2022/06/07 04:28:34;;;;;;;38.33;26.13;;;13.10;99.90;;;;;;5049307;28;20039;-76
2022/06/07 04:31:00;;;;;;;37.92;26.15;;;13.10;99.90;;;;;;5068223;28;20028;-76
2022/06/07 04:33:26;;;;;;;33.17;24.55;;;13.10;99.90;;;;;;5073633;28;20028;-76
2022/06/07 04:35:51;;;;;;;34.15;25.20;;;13.10;99.90;;;;;;5067042;28;20155;-76
2022/06/07 04:38:17;;;;;;;31.95;22.58;;;13.10;99.90;;;;;;5070675;28;20111;-76
2022/06/07 04:40:43;;;;;;;34.35;22.85;;;13.10;99.90;;;;;;5069015;28;20025;-75
2022/06/07 04:43:10;;;;;;;45.63;22.88;;;13.10;99.90;;;;;;5071204;28;20507;-75
2022/06/07 04:45:40;;;;;;;31.38;21.38;;;13.10;99.90;;;;;;5052622;28;20480;-76
2022/06/07 04:48:07;;;;;;;31.25;22.13;;;13.10;99.90;;;;;;5070173;28;20120;-76
2022/06/07 04:50:33;;;;;;;28.50;21.23;;;13.10;99.90;;;;;;5069129;28;20033;-76
2022/06/07 04:52:59;;;;;;;30.00;19.95;;;13.10;99.90;;;;;;5064054;28;20078;-76
2022/06/07 04:55:25;;;;;;;30.05;19.58;;;13.10;99.90;;;;;;5070887;28;20033;-75
2022/06/07 04:57:50;;;;;;;23.95;17.63;;;13.10;99.90;;;;;;5064180;28;20115;-76
2022/06/07 05:00:18;;;;;;;25.05;17.98;;;13.10;99.90;;;;;;5066998;28;20867;-75
2022/06/07 05:02:46;;;;;;;26.58;17.83;;;13.10;99.90;;;;;;5063851;28;20492;-75
2022/06/07 05:05:14;;;;;;;25.38;17.98;;;13.10;99.90;;;;;;5069227;28;20480;-76
2022/06/07 05:07:40;;;;;;;29.50;17.05;;;13.10;99.90;;;;;;5069071;28;20445;-75
2022/06/07 05:10:08;;;;;;;27.98;18.35;;;13.20;99.90;;;;;;5067923;28;20067;-75
2022/06/07 05:12:34;;;;;;;23.92;17.15;;;13.20;99.90;;;;;;5063107;28;20017;-75
2022/06/07 05:15:00;;;;;;;26.38;18.88;;;13.30;99.90;;;;;;5072110;28;20111;-75
2022/06/07 05:17:26;;;;;;;29.10;18.95;;;13.30;99.90;;;;;;5065759;28;20115;-76
2022/06/07 05:19:51;;;;;;;25.15;18.58;;;13.40;99.90;;;;;;5066079;28;20036;-76
2022/06/07 05:22:17;;;;;;;26.38;18.35;;;13.40;99.90;;;;;;5070307;28;20028;-76
2022/06/07 05:24:43;;;;;;;27.13;18.52;;;13.40;99.90;;;;;;5069246;28;20531;-75
2022/06/07 05:27:13;;;;;;;31.33;19.70;;;13.40;99.90;;;;;;5069687;28;20024;-75
2022/06/07 05:29:55;;;;;;;26.88;19.17;;;13.50;99.90;;;;;;5071177;28;20041;-75
2022/06/07 05:32:21;;;;;;;;;;;13.50;99.90;;;;;;5068424;28;20383;-75
2022/06/07 05:34:47;;;;;;;29.45;18.42;;;13.50;99.90;;;;;;5086105;28;19933;-75
2022/06/07 05:37:16;;;;;;;25.50;18.95;;;13.60;99.90;;;;;;5067945;28;20070;-73
2022/06/07 05:39:42;;;;;;;29.27;20.05;;;13.60;99.90;;;;;;5070375;28;20492;-76
2022/06/07 05:42:11;;;;;;;35.10;19.88;;;13.60;99.90;;;;;;5058768;28;20108;-76
2022/06/07 05:44:36;;;;;;;25.80;18.65;;;13.70;99.90;;;;;;5072464;28;20388;-74
2022/06/07 05:47:03;;;;;;;33.55;18.98;;;13.70;99.90;;;;;;5063620;28;20013;-75
2022/06/07 05:49:28;;;;;;;29.00;20.15;;;13.70;99.90;;;;;;5069954;28;20037;-74
2022/06/07 05:51:54;;;;;;;25.40;18.98;;;13.80;99.90;;;;;;5064045;28;20490;-84
2022/06/07 05:54:19;;;;;;;24.75;19.25;;;13.80;99.90;;;;;;5070748;28;20097;-77
2022/06/07 05:56:45;;;;;;;29.77;19.80;;;13.70;99.90;;;;;;5052125;28;20025;-77
2022/06/07 05:59:11;;;;;;;30.48;19.70;;;13.80;99.90;;;;;;5071915;28;20025;-77
2022/06/07 06:01:37;;;;;;;25.38;19.38;;;13.80;99.90;;;;;;5069104;28;20494;-77
2022/06/07 06:04:03;;;;;;;29.58;20.27;;;13.90;99.90;;;;;;5067190;28;20048;-77
2022/06/07 06:06:30;;;;;;;30.40;20.17;;;13.90;99.90;;;;;;5068691;28;20051;-77
2022/06/07 06:11:40;;;;;;;32.55;19.60;;;13.90;99.90;;;;;;5064864;28;20051;-76
2022/06/07 06:14:05;;;;;;;32.47;22.13;;;14.00;99.90;;;;;;5061003;28;20480;-76
2022/06/07 06:16:31;;;;;;;28.92;20.05;;;14.00;99.90;;;;;;5066819;28;20037;-76
2022/06/07 06:18:59;;;;;;;29.10;21.58;;;14.10;99.90;;;;;;5067636;28;20032;-76
2022/06/07 06:21:27;;;;;;;36.83;22.13;;;14.10;99.90;;;;;;5070663;28;20098;-77
2022/06/07 06:23:56;;;;;;;27.65;21.42;;;14.20;99.90;;;;;;5068709;28;20051;-77
2022/06/07 06:26:21;;;;;;;33.92;22.13;;;14.30;99.90;;;;;;5071339;28;20020;-76
2022/06/07 06:28:48;;;;;;;34.28;22.80;;;14.40;99.90;;;;;;5067476;28;20062;-77
2022/06/07 06:31:15;;;;;;;27.63;21.60;;;14.40;99.90;;;;;;5068169;28;20020;-76
2022/06/07 06:33:49;;;;;;;35.08;22.00;;;14.50;99.90;;;;;;5068989;28;20032;-76
2022/06/07 06:36:20;;;;;;;27.63;19.75;;;14.60;99.90;;;;;;5064858;28;20028;-78
2022/06/07 06:38:46;;;;;;;27.08;19.33;;;14.60;99.90;;;;;;5059677;28;20516;-77
2022/06/07 06:41:21;;;;;;;26.35;20.45;;;14.70;99.90;;;;;;5063446;28;20025;-76
2022/06/07 06:43:48;;;;;;;29.45;21.50;;;14.80;99.90;;;;;;5056273;28;20025;-76
2022/06/07 06:46:23;;;;;;;31.98;21.63;;;14.80;99.90;;;;;;5062973;28;20017;-76
2022/06/07 06:48:49;;;;;;;28.40;21.33;;;14.80;99.90;;;;;;5063018;28;20040;-76
2022/06/07 06:51:18;;;;;;;30.60;21.52;;;14.90;99.90;;;;;;5065924;28;20485;-77
2022/06/07 06:53:44;;;;;;;30.13;21.17;;;14.90;99.90;;;;;;5066620;28;20032;-77
2022/06/07 06:56:11;;;;;;;28.88;20.75;;;15.10;99.90;;;;;;5059530;28;20043;-77
2022/06/07 06:58:38;;;;;;;29.50;20.00;;;15.10;99.90;;;;;;5067989;28;20028;-76
2022/06/07 07:01:10;;;;;;;29.70;20.60;;;15.20;99.90;;;;;;5061722;28;20539;-77
2022/06/07 07:03:37;;;;;;;27.48;20.58;;;15.30;99.90;;;;;;5062153;28;20059;-76
2022/06/07 07:06:05;;;;;;;29.65;21.60;;;15.40;99.90;;;;;;5046567;28;20357;-76
2022/06/07 07:08:31;;;;;;;30.20;22.58;;;15.50;99.90;;;;;;5063996;28;20112;-76
2022/06/07 07:11:06;;;;;;;28.40;21.40;;;15.60;99.90;;;;;;5046564;28;20021;-77
2022/06/07 07:13:32;;;;;;;29.63;21.17;;;15.60;99.90;;;;;;5058630;28;20048;-77
2022/06/07 07:15:57;;;;;;;31.65;22.85;;;15.70;99.90;;;;;;5060192;28;20055;-75
2022/06/07 07:18:24;;;;;;;31.70;21.55;;;15.80;99.90;;;;;;5067042;28;20075;-77
2022/06/07 07:20:50;;;;;;;32.25;22.50;;;15.90;99.90;;;;;;5062979;28;20041;-76
2022/06/07 07:23:16;;;;;;;28.95;23.48;;;15.90;99.90;;;;;;5065608;28;20040;-76
2022/06/07 07:25:41;;;;;;;32.00;23.60;;;16.00;99.90;;;;;;5064043;28;20028;-78
2022/06/07 07:28:07;;;;;;;32.08;22.52;;;16.00;99.90;;;;;;5064031;28;20038;-78
2022/06/07 07:30:34;;;;;;;32.28;23.33;;;16.00;99.90;;;;;;5062033;28;20487;-76
2022/06/07 07:33:00;;;;;;;33.17;25.17;;;16.00;99.90;;;;;;5060166;28;20051;-74
2022/06/07 07:35:26;;;;;;;30.65;23.73;;;16.10;99.90;;;;;;5058024;28;20056;-77
2022/06/07 07:37:52;;;;;;;31.65;24.58;;;16.20;99.90;;;;;;5061588;28;20056;-75
2022/06/07 07:40:18;;;;;;;26.15;22.20;;;16.30;99.90;;;;;;5061367;28;20494;-77
2022/06/07 07:42:43;;;;;;;33.33;24.17;;;16.30;99.90;;;;;;5062596;28;20036;-77
2022/06/07 07:45:12;;;;;;;31.88;24.70;;;16.50;99.90;;;;;;5048690;28;20114;-77
2022/06/07 07:47:38;;;;;;;30.55;22.98;;;16.80;99.90;;;;;;5066602;28;20017;-75
2022/06/07 07:50:03;;;;;;;30.83;23.55;;;17.00;99.90;;;;;;5050407;28;20035;-75
2022/06/07 07:52:29;;;;;;;30.58;23.23;;;17.20;99.90;;;;;;5068876;28;20021;-76
2022/06/07 07:54:55;;;;;;;26.83;22.42;;;17.30;99.90;;;;;;5060130;28;20039;-76
2022/06/07 07:57:20;;;;;;;28.48;22.30;;;17.30;99.90;;;;;;5061739;28;20021;-74
2022/06/07 07:59:46;;;;;;;27.67;22.80;;;17.30;99.90;;;;;;5061775;28;20044;-75
2022/06/07 08:02:18;;;;;;;27.08;22.65;;;17.40;99.90;;;;;;5062930;28;20024;-74
2022/06/07 08:04:43;;;;;;;31.98;23.35;;;17.40;99.90;;;;;;5061632;28;20028;-75
2022/06/07 08:07:09;;;;;;;27.27;23.42;;;17.20;99.90;;;;;;5062132;28;20024;-75
2022/06/07 08:09:34;;;;;;;27.20;22.05;;;17.20;99.90;;;;;;5057191;28;20051;-75
2022/06/07 08:12:05;;;;;;;28.77;23.13;;;17.10;99.90;;;;;;5058884;28;20546;-75
2022/06/07 08:14:32;;;;;;;31.52;23.52;;;17.00;99.90;;;;;;5063660;28;20043;-75
2022/06/07 08:16:58;;;;;;;29.63;22.75;;;17.00;99.90;;;;;;5059473;28;20032;-74
2022/06/07 08:19:24;;;;;;;27.23;21.58;;;17.00;99.90;;;;;;5065133;28;20093;-75
2022/06/07 08:21:50;;;;;;;31.00;23.75;;;16.90;99.90;;;;;;5067905;28;20024;-74
2022/06/07 08:24:19;;;;;;;29.10;23.48;;;16.90;99.90;;;;;;5064646;28;20025;-75
2022/06/07 08:26:48;;;;;;;30.88;23.63;;;16.90;99.90;;;;;;5064973;28;20437;-75
2022/06/07 08:29:14;;;;;;;32.00;24.05;;;16.90;99.90;;;;;;5060885;28;20032;-76
2022/06/07 08:31:40;;;;;;;31.23;23.55;;;17.00;99.90;;;;;;5057518;28;20164;-75
2022/06/07 08:39:45;;;;;;;30.50;23.50;;;17.10;99.90;;;;;;5068138;28;20507;-75
2022/06/07 08:42:23;;;;;;;28.67;23.10;;;17.30;99.90;;;;;;5067463;28;20028;-75
2022/06/07 08:44:54;;;;;;;29.98;22.85;;;17.50;99.90;;;;;;5064462;28;20440;-75
2022/06/07 08:47:41;;;;;;;25.95;21.67;;;17.60;99.90;;;;;;5063535;28;20021;-75
2022/06/07 08:50:19;;;;;;;27.15;20.83;;;17.60;99.90;;;;;;5048019;28;20369;-75
2022/06/07 08:52:46;;;;;;;26.90;20.50;;;17.60;99.90;;;;;;5070399;28;20039;-75
2022/06/07 08:55:16;;;;;;;25.70;20.45;;;17.60;99.90;;;;;;5073163;28;20024;-75
2022/06/07 08:57:45;;;;;;;29.98;21.83;;;17.50;99.90;;;;;;5073194;28;20376;-76
2022/06/07 09:00:24;;;;;;;28.58;20.77;;;17.60;99.90;;;;;;5065393;28;20162;-75
2022/06/07 09:02:56;;;;;;;24.73;20.42;;;17.60;99.90;;;;;;5064405;28;20412;-75
2022/06/07 09:05:25;;;;;;;23.52;18.95;;;17.70;99.90;;;;;;5061612;28;20033;-75
2022/06/07 09:07:51;;;;;;;26.67;21.20;;;17.80;99.90;;;;;;5068360;28;20024;-75
2022/06/07 09:13:23;;;;;;;24.63;20.63;;;17.60;99.90;;;;;;5071502;28;20078;-75
2022/06/07 09:15:55;;;;;;;24.38;21.05;;;17.60;99.90;;;;;;5048390;28;20380;-76
2022/06/07 09:18:26;;;;;;;26.42;20.90;;;17.60;99.90;;;;;;5068814;28;20032;-76
2022/06/07 09:20:57;;;;;;;23.60;21.10;;;17.70;99.90;;;;;;5068858;28;20087;-76
2022/06/07 09:23:27;;;;;;;25.48;21.52;;;17.90;99.90;;;;;;5071773;28;20093;-75
2022/06/07 09:25:56;;;;;;;24.45;20.40;;;18.00;99.90;;;;;;5061444;28;20020;-76
2022/06/07 09:28:27;;;;;;;28.80;21.48;;;18.20;99.90;;;;;;5072412;28;20176;-75
2022/06/07 09:31:04;;;;;;;24.02;20.55;;;18.20;99.90;;;;;;5065454;28;20087;-76
2022/06/07 09:33:56;;;;;;;21.08;18.67;;;18.20;99.90;;;;;;5065726;28;20028;-76
2022/06/07 09:36:35;;;;;;;28.38;19.17;;;18.30;99.90;;;;;;5065259;28;20043;-76
2022/06/07 09:39:36;;;;;;;22.88;19.70;;;18.30;99.90;;;;;;5050131;28;20384;-76
2022/06/07 09:42:19;;;;;;;23.60;20.98;;;18.50;99.90;;;;;;5060752;28;20511;-76
2022/06/07 09:45:02;;;;;;;24.25;19.23;;;18.60;99.90;;;;;;5062996;28;20197;-75
2022/06/07 09:47:30;;;;;;;21.52;18.60;;;18.70;99.90;;;;;;5061223;28;20028;-77
2022/06/07 09:50:04;;;;;;;22.45;20.13;;;18.90;99.90;;;;;;5058993;28;20788;-77
2022/06/07 09:52:41;;;;;;;21.05;18.85;;;19.00;99.90;;;;;;5060042;28;20021;-77
2022/06/07 09:55:24;;;;;;;24.70;18.80;;;19.00;99.90;;;;;;5065084;28;20107;-76
2022/06/07 09:57:59;;;;;;;18.42;16.42;;;19.10;99.90;;;;;;5065273;28;20021;-77
2022/06/07 10:00:36;;;;;;;19.77;16.77;;;19.10;99.90;;;;;;5067467;28;20031;-77
2022/06/07 10:03:29;;;;;;;19.88;16.15;;;19.10;99.90;;;;;;5066889;28;20393;-76
2022/06/07 10:06:22;;;;;;;23.23;17.60;;;19.30;99.90;;;;;;5084873;28;20036;-74
2022/06/07 10:09:20;;;;;;;22.90;17.90;;;19.60;99.90;;;;;;5064541;28;20553;-75
2022/06/07 10:12:30;;;;;;;21.23;17.65;;;19.70;99.90;;;;;;5030943;28;20040;-75
2022/06/07 10:15:35;;;;;;;17.73;15.73;;;19.70;99.90;;;;;;5061367;28;20361;-74
2022/06/07 10:18:19;;;;;;;18.20;16.27;;;19.80;99.90;;;;;;5055765;28;20479;-74
2022/06/07 10:21:26;;;;;;;17.90;15.75;;;20.00;99.90;;;;;;5067652;28;20031;-75
2022/06/07 10:24:03;;;;;;;18.15;15.35;;;20.20;99.90;;;;;;4995108;28;20489;-75
2022/06/07 10:26:44;;;;;;;16.83;14.77;;;20.40;99.90;;;;;;5070271;28;20483;-75
2022/06/07 10:29:41;;;;;;;18.48;16.38;;;20.50;99.90;;;;;;5066071;28;20049;-75
2022/06/07 10:32:28;;;;;;;15.73;14.05;;;20.70;99.90;;;;;;5061040;28;20024;-75
2022/06/07 10:35:10;;;;;;;16.17;14.18;;;20.90;99.90;;;;;;5060378;28;20392;-75
2022/06/07 10:37:53;;;;;;;18.15;13.48;;;21.10;99.90;;;;;;5066452;28;20028;-76
2022/06/07 10:40:29;;;;;;;14.05;12.55;;;21.10;99.90;;;;;;5070487;28;20033;-75
2022/06/07 10:43:05;;;;;;;14.30;12.20;;;21.10;99.90;;;;;;5069082;28;20029;-75
2022/06/07 10:45:36;;;;;;;11.85;10.63;;;21.10;99.90;;;;;;5063825;28;20122;-76
2022/06/07 10:48:13;;;;;;;10.82;8.60;;;21.10;99.90;;;;;;5068665;28;20412;-76
2022/06/07 10:50:59;;;;;;;10.93;8.70;;;21.10;99.90;;;;;;5071456;28;20025;-76
2022/06/07 10:53:34;;;;;;;12.55;10.27;;;20.90;99.90;;;;;;5064254;28;20546;-76
2022/06/07 10:56:16;;;;;;;12.88;11.57;;;21.00;99.90;;;;;;5069299;28;20052;-76
2022/06/07 10:58:45;;;;;;;11.77;10.00;;;21.20;99.90;;;;;;5070290;28;20025;-76
2022/06/07 11:01:40;;;;;;;10.45;9.35;;;21.50;99.90;;;;;;5070204;28;20035;-75
2022/06/07 11:10:26;;;;;;;12.77;9.88;;;21.30;99.90;;;;;;5061483;28;20039;-75
2022/06/07 11:13:27;;;;;;;10.68;8.15;;;21.30;99.90;;;;;;5065802;28;20041;-77
2022/06/07 11:16:30;;;;;;;9.65;8.65;;;21.20;99.90;;;;;;5059678;28;20032;-75
2022/06/07 11:18:59;;;;;;;10.18;8.52;;;21.40;99.90;;;;;;5063155;28;20028;-75
2022/06/07 11:21:37;;;;;;;10.13;8.27;;;21.60;99.90;;;;;;5067280;28;20115;-75
2022/06/07 11:24:02;;;;;;;10.82;9.45;;;21.70;99.90;;;;;;5059017;28;20119;-75
2022/06/07 11:26:58;;;;;;;12.57;8.55;;;21.50;99.90;;;;;;5059671;28;20112;-75
2022/06/07 11:29:28;;;;;;;10.27;7.97;;;21.40;99.90;;;;;;5034651;28;20052;-74
2022/06/07 11:31:54;;;;;;;12.02;8.45;;;21.30;99.90;;;;;;5060746;28;20051;-75
2022/06/07 11:34:33;;;;;;;13.65;9.73;;;21.30;99.90;;;;;;5063175;28;20160;-74
2022/06/07 11:37:32;;;;;;;9.15;8.25;;;21.20;99.90;;;;;;5065534;28;20032;-76
2022/06/07 11:39:58;;;;;;;11.65;8.75;;;21.20;99.90;;;;;;5061308;28;20403;-75
2022/06/07 11:42:34;;;;;;;11.25;8.55;;;21.20;99.90;;;;;;5069241;28;20034;-75
2022/06/07 11:45:05;;;;;;;13.82;10.13;;;21.40;99.90;;;;;;5068729;28;20096;-75
2022/06/07 11:47:46;;;;;;;14.07;8.77;;;21.40;99.90;;;;;;5070668;28;20032;-74
2022/06/07 11:50:31;;;;;;;10.52;8.68;;;21.20;99.90;;;;;;5064146;28;20496;-76
2022/06/07 11:53:14;;;;;;;11.55;8.20;;;21.00;99.90;;;;;;5070271;28;20074;-77
2022/06/07 11:55:43;;;;;;;14.07;9.05;;;20.70;99.90;;;;;;5066429;28;20037;-75
2022/06/07 11:58:09;;;;;;;10.90;8.07;;;20.60;99.90;;;;;;5066890;28;20013;-76
2022/06/07 12:00:38;;;;;;;9.15;7.60;;;20.50;99.90;;;;;;5068864;28;20090;-76
2022/06/07 12:03:08;;;;;;;8.43;6.72;;;20.50;99.90;;;;;;5068060;28;20408;-74
2022/06/07 12:05:47;;;;;;;7.70;6.55;;;20.40;99.90;;;;;;5067577;28;20029;-75
2022/06/07 12:08:43;;;;;;;10.32;6.63;;;20.50;99.90;;;;;;5063736;28;20037;-75
2022/06/07 12:11:22;;;;;;;12.20;7.35;;;20.50;99.90;;;;;;5065803;28;20020;-75
2022/06/07 12:13:56;;;;;;;8.75;6.75;;;20.60;99.90;;;;;;5071037;28;20032;-75
2022/06/07 12:17:03;;;;;;;10.05;6.45;;;20.60;99.90;;;;;;5070601;28;20024;-74
2022/06/07 12:19:39;;;;;;;8.45;5.72;;;20.70;99.90;;;;;;5066475;28;20028;-74
2022/06/07 12:22:07;;;;;;;10.43;6.28;;;20.80;99.90;;;;;;5060578;28;20028;-75
2022/06/07 12:24:46;;;;;;;8.13;5.95;;;21.00;99.90;;;;;;5071370;28;20103;-75
2022/06/07 12:27:44;;;;;;;7.50;5.60;;;21.10;99.90;;;;;;5069298;28;20028;-75
2022/06/07 12:30:32;;;;;;;6.72;4.78;;;21.20;99.90;;;;;;5068700;28;20417;-75
2022/06/07 12:33:24;;;;;;;9.13;5.57;;;21.50;99.90;;;;;;5068754;28;20035;-75
2022/06/07 12:35:59;;;;;;;7.63;4.38;;;21.80;99.90;;;;;;5072778;28;20383;-75
2022/06/07 12:38:27;;;;;;;5.70;4.70;;;21.90;99.90;;;;;;5066634;28;20493;-75
2022/06/07 12:40:59;;;;;;;10.60;6.55;;;21.80;99.90;;;;;;5068721;28;20031;-75
2022/06/07 12:43:28;;;;;;;12.82;7.40;;;21.60;99.90;;;;;;5070580;28;20016;-75
2022/06/07 12:46:07;;;;;;;16.92;11.45;;;21.40;99.90;;;;;;5072341;28;20035;-75
2022/06/07 12:48:40;;;;;;;11.75;9.45;;;21.30;99.90;;;;;;5070683;28;20040;-75
2022/06/07 12:51:24;;;;;;;10.85;8.93;;;21.20;99.90;;;;;;5066893;28;20034;-75
2022/06/07 12:53:58;;;;;;;12.70;9.38;;;21.20;99.90;;;;;;5064062;28;20083;-75
2022/06/07 12:56:28;;;;;;;11.63;8.52;;;21.30;99.90;;;;;;5072625;28;20032;-74
2022/06/07 12:58:57;;;;;;;8.30;5.95;;;21.50;99.90;;;;;;5065007;28;20024;-75
2022/06/07 13:01:35;;;;;;;8.27;6.15;;;21.60;99.90;;;;;;5060323;28;20024;-76
2022/06/07 13:04:15;;;;;;;9.15;6.38;;;21.70;99.90;;;;;;5062264;28;20045;-74
2022/06/07 13:07:00;;;;;;;6.45;4.13;;;21.80;99.90;;;;;;5066773;28;20029;-75
2022/06/07 13:09:26;;;;;;;6.00;4.15;;;21.70;99.60;;;;;;5062346;28;20067;-75
2022/06/07 13:11:52;;;;;;;5.75;4.95;;;21.70;99.50;;;;;;5062482;28;20055;-75
2022/06/07 13:14:19;;;;;;;7.95;4.78;;;21.60;99.70;;;;;;5061816;28;20040;-75